Time;durP1;ratioP1;P1;durP2;ratioP2;P2;SDS_P1;SDS_P2;PMS_P1;PMS_P2;Temp;Humidity;BMP_temperature;BMP_pressure;BME280_temperature;BME280_humidity;BME280_pressure;Samples;Min_cycle;Max_cycle;Signal;HPM_P1;HPM_P2
2022/05/31 00:01:49;;;;;;;1.10;1.10;;;;;;;;;;4987989;28;20296;-85
2022/05/31 00:04:18;;;;;;;1.00;1.00;;;;;;;;;;4987509;28;20200;-85
2022/05/31 00:06:47;;;;;;;0.50;0.50;;;;;;;;;;4987348;28;20217;-85
2022/05/31 00:09:16;;;;;;;0.50;0.50;;;;;;;;;;4987776;28;20293;-86
2022/05/31 00:11:44;;;;;;;0.80;0.80;;;;;;;;;;5004182;28;20221;-85
2022/05/31 00:14:15;;;;;;;0.67;0.67;;;;;;;;;;4987546;28;20272;-86
2022/05/31 00:16:45;;;;;;;0.50;0.50;;;;;;;;;;4988076;28;20209;-85
2022/05/31 00:19:14;;;;;;;1.03;1.03;;;;;;;;;;4987684;28;20280;-85
2022/05/31 00:21:43;;;;;;;0.90;0.90;;;;;;;;;;4987284;28;20229;-86
2022/05/31 00:24:22;;;;;;;0.70;0.70;;;;;;;;;;5004047;28;20192;-86
2022/05/31 00:26:51;;;;;;;0.70;0.70;;;;;;;;;;5004411;28;20258;-86
2022/05/31 00:29:21;;;;;;;0.50;0.50;;;;;;;;;;4987853;28;20212;-86
2022/05/31 00:31:50;;;;;;;0.60;0.60;;;;;;;;;;5003676;28;20212;-86
2022/05/31 00:34:19;;;;;;;0.77;0.77;;;;;;;;;;5003548;28;20262;-87
2022/05/31 00:36:49;;;;;;;0.87;0.87;;;;;;;;;;4987721;28;20204;-85
2022/05/31 00:39:17;;;;;;;0.50;0.50;;;;;;;;;;4988486;28;20212;-85
2022/05/31 00:41:57;;;;;;;0.70;0.70;;;;;;;;;;5005376;28;20212;-86
2022/05/31 00:44:28;;;;;;;0.73;0.73;;;;;;;;;;5020563;28;20221;-86
2022/05/31 00:46:58;;;;;;;0.60;0.60;;;;;;;;;;4989178;28;20208;-86
2022/05/31 00:49:31;;;;;;;0.50;0.50;;;;;;;;;;5004052;28;20208;-86
2022/05/31 00:52:02;;;;;;;0.53;0.53;;;;;;;;;;5020213;28;20204;-86
2022/05/31 00:54:32;;;;;;;1.03;1.03;;;;;;;;;;4989559;28;20198;-86
2022/05/31 00:57:02;;;;;;;1.47;1.47;;;;;;;;;;5006444;28;20297;-86
2022/05/31 00:59:37;;;;;;;2.73;1.07;;;;;;;;;;5006248;28;20233;-86
2022/05/31 01:02:08;;;;;;;0.63;0.63;;;;;;;;;;4989405;28;20209;-86
2022/05/31 01:04:39;;;;;;;0.87;0.87;;;;;;;;;;5006632;28;20208;-86
2022/05/31 01:07:08;;;;;;;10.07;1.37;;;;;;;;;;4989475;28;20247;-85
2022/05/31 01:09:37;;;;;;;0.50;0.50;;;;;;;;;;4999389;28;20285;-86
2022/05/31 01:12:06;;;;;;;0.70;0.70;;;;;;;;;;4989467;28;20206;-87
2022/05/31 01:14:38;;;;;;;0.73;0.73;;;;;;;;;;4989966;28;20205;-86
2022/05/31 01:17:09;;;;;;;0.70;0.70;;;;;;;;;;4990133;28;20213;-86
2022/05/31 01:19:59;;;;;;;1.20;1.10;;;;;;;;;;5006222;28;20235;-86
2022/05/31 01:22:33;;;;;;;0.77;0.77;;;;;;;;;;5007024;28;20200;-87
2022/05/31 01:25:06;;;;;;;9.33;1.70;;;;;;;;;;4986839;28;20216;-86
2022/05/31 01:27:39;;;;;;;1.43;1.33;;;;;;;;;;4974765;28;20220;-87
2022/05/31 01:30:08;;;;;;;0.93;0.93;;;;;;;;;;4984645;28;20204;-86
2022/05/31 01:32:41;;;;;;;0.70;0.70;;;;;;;;;;4991340;28;20312;-86
2022/05/31 01:35:11;;;;;;;0.50;0.50;;;;;;;;;;4992122;28;20201;-87
2022/05/31 01:37:43;;;;;;;0.50;0.50;;;;;;;;;;4991174;28;20207;-87
2022/05/31 01:40:14;;;;;;;0.53;0.53;;;;;;;;;;5008349;28;20227;-86
2022/05/31 01:42:44;;;;;;;0.50;0.50;;;;;;;;;;5007501;28;20223;-86
2022/05/31 01:45:14;;;;;;;1.17;1.17;;;;;;;;;;4991204;28;20215;-86
2022/05/31 01:47:43;;;;;;;0.70;0.70;;;;;;;;;;5023680;28;20232;-86
2022/05/31 01:50:16;;;;;;;0.60;0.60;;;;;;;;;;4984499;28;20252;-87
2022/05/31 01:52:48;;;;;;;0.57;0.57;;;;;;;;;;4971620;28;20209;-86
2022/05/31 01:55:17;;;;;;;0.60;0.60;;;;;;;;;;4989210;28;20184;-86
2022/05/31 01:57:48;;;;;;;0.60;0.60;;;;;;;;;;4983236;28;20201;-86
2022/05/31 02:00:18;;;;;;;1.40;1.40;;;;;;;;;;4971562;28;20201;-86
2022/05/31 02:02:48;;;;;;;0.80;0.80;;;;;;;;;;4988699;28;20256;-86
2022/05/31 02:05:17;;;;;;;0.60;0.60;;;;;;;;;;4971886;28;20202;-87
2022/05/31 02:07:54;;;;;;;0.60;0.60;;;;;;;;;;4987815;28;20220;-85
2022/05/31 02:10:23;;;;;;;0.80;0.80;;;;;;;;;;4959713;28;20205;-86
2022/05/31 02:12:53;;;;;;;0.60;0.60;;;;;;;;;;4972013;28;20216;-84
2022/05/31 02:15:22;;;;;;;0.73;0.73;;;;;;;;;;4971934;28;20194;-84
2022/05/31 02:17:51;;;;;;;0.60;0.60;;;;;;;;;;4965305;28;20276;-85
2022/05/31 02:20:22;;;;;;;1.03;1.03;;;;;;;;;;4972051;28;20189;-85
2022/05/31 02:22:51;;;;;;;0.87;0.87;;;;;;;;;;4972098;28;20232;-85
2022/05/31 02:25:21;;;;;;;0.63;0.63;;;;;;;;;;4971409;28;20219;-86
2022/05/31 02:27:50;;;;;;;0.87;0.87;;;;;;;;;;4989179;28;20209;-86
2022/05/31 02:30:19;;;;;;;1.57;1.30;;;;;;;;;;4971924;28;20220;-86
2022/05/31 02:32:47;;;;;;;0.70;0.70;;;;;;;;;;4972435;28;20204;-85
2022/05/31 02:35:16;;;;;;;1.37;1.37;;;;;;;;;;4975419;28;20204;-86
2022/05/31 02:37:45;;;;;;;1.27;1.17;;;;;;;;;;4976420;28;20197;-86
2022/05/31 02:40:13;;;;;;;0.60;0.60;;;;;;;;;;4975992;28;20196;-85
2022/05/31 02:42:43;;;;;;;1.10;1.10;;;;;;;;;;4976274;28;20221;-85
2022/05/31 02:45:13;;;;;;;1.50;1.40;;;;;;;;;;4975816;28;20220;-85
2022/05/31 02:47:41;;;;;;;0.60;0.60;;;;;;;;;;4992929;28;20201;-86
2022/05/31 02:50:10;;;;;;;1.33;1.23;;;;;;;;;;4998737;28;20225;-85
2022/05/31 02:52:39;;;;;;;0.80;0.80;;;;;;;;;;5012764;28;20231;-85
2022/05/31 02:55:08;;;;;;;1.30;1.20;;;;;;;;;;5027519;28;20247;-85
2022/05/31 02:57:36;;;;;;;0.80;0.80;;;;;;;;;;4995181;28;20215;-85
2022/05/31 03:00:08;;;;;;;0.77;0.77;;;;;;;;;;5012718;28;20211;-86
2022/05/31 03:02:37;;;;;;;0.70;0.70;;;;;;;;;;4996076;28;20258;-86
2022/05/31 03:05:16;;;;;;;0.70;0.70;;;;;;;;;;4981902;28;20200;-86
2022/05/31 03:07:45;;;;;;;0.60;0.60;;;;;;;;;;5012246;28;20200;-85
2022/05/31 03:10:16;;;;;;;0.60;0.60;;;;;;;;;;4982898;28;20211;-86
2022/05/31 03:12:45;;;;;;;0.70;0.70;;;;;;;;;;4995094;28;20215;-85
2022/05/31 03:15:17;;;;;;;1.47;0.80;;;;;;;;;;4996073;28;20209;-86
2022/05/31 03:17:51;;;;;;;0.87;0.87;;;;;;;;;;4995099;28;20212;-86
2022/05/31 03:20:22;;;;;;;0.60;0.60;;;;;;;;;;5012388;28;20201;-86
2022/05/31 03:22:53;;;;;;;1.20;1.20;;;;;;;;;;4992077;28;20272;-86
2022/05/31 03:25:23;;;;;;;13.43;1.20;;;;;;;;;;5006376;28;20205;-85
2022/05/31 03:27:53;;;;;;;1.13;1.13;;;;;;;;;;5011123;28;20204;-86
2022/05/31 03:30:23;;;;;;;1.40;1.30;;;;;;;;;;4995070;28;20201;-85
2022/05/31 03:32:52;;;;;;;0.90;0.90;;;;;;;;;;4994127;28;20205;-85
2022/05/31 03:35:20;;;;;;;0.60;0.60;;;;;;;;;;4994237;28;20329;-85
2022/05/31 03:37:49;;;;;;;1.33;1.33;;;;;;;;;;4994545;28;20240;-85
2022/05/31 03:43:01;;;;;;;0.80;0.80;;;;;;;;;;5026442;28;20255;-86
2022/05/31 03:45:35;;;;;;;0.70;0.70;;;;;;;;;;5010232;28;20196;-86
2022/05/31 03:48:06;;;;;;;0.60;0.60;;;;;;;;;;5011636;28;20235;-87
2022/05/31 03:50:35;;;;;;;2.73;1.17;;;;;;;;;;4995111;28;20251;-87
2022/05/31 03:53:04;;;;;;;1.23;1.07;;;;;;;;;;4994122;28;20211;-87
2022/05/31 03:55:32;;;;;;;1.10;1.10;;;;;;;;;;4994377;28;20220;-87
2022/05/31 03:58:01;;;;;;;1.40;0.97;;;;;;;;;;5012003;28;20208;-87
2022/05/31 04:00:30;;;;;;;1.60;1.60;;;;;;;;;;5012698;28;20211;-86
2022/05/31 04:03:00;;;;;;;0.93;0.93;;;;;;;;;;4994854;28;20208;-86
2022/05/31 04:05:28;;;;;;;0.93;0.93;;;;;;;;;;4995116;28;20208;-86
2022/05/31 04:08:04;;;;;;;1.00;1.00;;;;;;;;;;4994179;28;20205;-87
2022/05/31 04:10:33;;;;;;;1.53;1.53;;;;;;;;;;4989722;28;20235;-87
2022/05/31 04:13:01;;;;;;;1.10;1.10;;;;;;;;;;4988689;28;20289;-86
2022/05/31 04:15:30;;;;;;;0.60;0.60;;;;;;;;;;4988941;28;20231;-86
2022/05/31 04:18:00;;;;;;;1.27;0.80;;;;;;;;;;4992464;28;20192;-87
2022/05/31 04:20:28;;;;;;;1.03;1.00;;;;;;;;;;4988060;28;20201;-87
2022/05/31 04:23:57;;;;;;;0.50;0.50;;;;;;;;;;5002483;28;20208;-87
2022/05/31 04:25:46;;;;;;;1.43;1.43;;;;;;;;;;4980589;28;20247;-86
2022/05/31 04:28:15;;;;;;;0.57;0.57;;;;;;;;;;4991763;28;20272;-85
2022/05/31 04:30:45;;;;;;;1.87;1.77;;;;;;;;;;4992001;28;20224;-87
2022/05/31 04:33:15;;;;;;;0.60;0.60;;;;;;;;;;4991543;28;20228;-86
2022/05/31 04:35:43;;;;;;;1.33;1.33;;;;;;;;;;4992172;28;20250;-87
2022/05/31 04:38:12;;;;;;;0.73;0.73;;;;;;;;;;5009759;28;20293;-87
2022/05/31 04:40:40;;;;;;;0.93;0.93;;;;;;;;;;5010066;28;20204;-87
2022/05/31 04:43:09;;;;;;;0.73;0.73;;;;;;;;;;5008624;28;20256;-87
2022/05/31 04:45:41;;;;;;;1.10;0.73;;;;;;;;;;4992977;28;20229;-87
2022/05/31 04:48:09;;;;;;;0.80;0.80;;;;;;;;;;4997980;28;20220;-87
2022/05/31 04:50:39;;;;;;;0.90;0.90;;;;;;;;;;5009741;28;20239;-87
2022/05/31 04:53:08;;;;;;;1.40;1.30;;;;;;;;;;4984129;28;20317;-87
2022/05/31 04:55:36;;;;;;;4.67;2.30;;;;;;;;;;4996103;28;20209;-87
2022/05/31 04:58:05;;;;;;;1.20;1.10;;;;;;;;;;4961677;28;20205;-87
2022/05/31 05:00:38;;;;;;;1.33;1.23;;;;;;;;;;4960248;28;20297;-87
2022/05/31 05:03:06;;;;;;;0.90;0.90;;;;;;;;;;4959938;28;20197;-87
2022/05/31 05:05:35;;;;;;;0.60;0.60;;;;;;;;;;4977054;28;20202;-87
2022/05/31 05:08:05;;;;;;;2.03;1.90;;;;;;;;;;4976942;28;20201;-87
2022/05/31 05:10:34;;;;;;;2.30;1.83;;;;;;;;;;4960066;28;20208;-87
2022/05/31 05:13:02;;;;;;;1.80;1.70;;;;;;;;;;4992027;28;20206;-87
2022/05/31 05:15:31;;;;;;;0.93;0.93;;;;;;;;;;4956958;28;20226;-86
2022/05/31 05:17:59;;;;;;;1.57;1.57;;;;;;;;;;4955014;28;20201;-85
2022/05/31 05:20:27;;;;;;;1.77;1.70;;;;;;;;;;4952890;28;20204;-86
2022/05/31 05:22:56;;;;;;;1.80;1.63;;;;;;;;;;4978444;28;20230;-87
2022/05/31 05:25:26;;;;;;;1.10;1.10;;;;;;;;;;4960622;28;20201;-87
2022/05/31 05:27:54;;;;;;;0.40;0.40;;;;;;;;;;4992244;28;20226;-87
2022/05/31 05:30:40;;;;;;;2.70;1.83;;;;;;;;;;5005221;28;20197;-87
2022/05/31 05:33:10;;;;;;;1.03;1.03;;;;;;;;;;5003995;28;20229;-87
2022/05/31 05:35:38;;;;;;;11.33;1.57;;;;;;;;;;4965313;28;20304;-87
2022/05/31 05:38:07;;;;;;;0.80;0.80;;;;;;;;;;4978635;28;20228;-87
2022/05/31 05:40:37;;;;;;;1.80;0.90;;;;;;;;;;4965269;28;20205;-88
2022/05/31 05:43:07;;;;;;;1.23;1.03;;;;;;;;;;4973990;28;20256;-87
2022/05/31 05:45:36;;;;;;;0.50;0.50;;;;;;;;;;4982248;28;20193;-86
2022/05/31 05:48:05;;;;;;;2.93;1.27;;;;;;;;;;4971061;28;20209;-87
2022/05/31 05:50:35;;;;;;;1.33;1.33;;;;;;;;;;4980540;28;20233;-86
2022/05/31 05:53:05;;;;;;;4.23;1.50;;;;;;;;;;4982397;28;20296;-86
2022/05/31 05:55:36;;;;;;;0.50;0.50;;;;;;;;;;4979766;28;20308;-87
2022/05/31 05:58:08;;;;;;;0.50;0.50;;;;;;;;;;4996906;28;20206;-87
2022/05/31 06:00:39;;;;;;;0.80;0.80;;;;;;;;;;4979463;28;20215;-87
2022/05/31 06:03:12;;;;;;;5.97;2.27;;;;;;;;;;4996159;28;20208;-87
2022/05/31 06:05:45;;;;;;;5.70;2.03;;;;;;;;;;4980178;28;20206;-89
2022/05/31 06:08:26;;;;;;;1.70;1.60;;;;;;;;;;4978521;28;20198;-88
2022/05/31 06:10:59;;;;;;;4.60;3.57;;;;;;;;;;5011540;28;20213;-89
2022/05/31 06:13:35;;;;;;;3.13;2.20;;;;;;;;;;4979743;28;20194;-88
2022/05/31 06:16:05;;;;;;;2.80;2.60;;;;;;;;;;4979551;28;20256;-88
2022/05/31 06:18:37;;;;;;;2.13;1.97;;;;;;;;;;4980153;28;20198;-88
2022/05/31 06:21:07;;;;;;;2.40;2.20;;;;;;;;;;4979680;28;20198;-88
2022/05/31 06:23:37;;;;;;;1.63;1.53;;;;;;;;;;4980196;28;20207;-89
2022/05/31 06:26:06;;;;;;;9.70;2.57;;;;;;;;;;4980112;28;20202;-87
2022/05/31 06:28:40;;;;;;;0.50;0.50;;;;;;;;;;4980552;28;20211;-87
2022/05/31 06:31:09;;;;;;;2.03;1.93;;;;;;;;;;4980747;28;20210;-88
2022/05/31 06:33:40;;;;;;;0.40;0.40;;;;;;;;;;4980826;28;20225;-88
2022/05/31 06:36:10;;;;;;;4.17;3.17;;;;;;;;;;4975389;28;20243;-87
2022/05/31 06:38:42;;;;;;;9.63;1.93;;;;;;;;;;4974786;28;20199;-86
2022/05/31 06:41:16;;;;;;;3.73;2.67;;;;;;;;;;4972999;28;20196;-87
2022/05/31 06:43:48;;;;;;;2.47;2.27;;;;;;;;;;4998317;28;20235;-84
2022/05/31 06:46:19;;;;;;;0.97;0.97;;;;;;;;;;4989324;28;20211;-87
2022/05/31 06:48:49;;;;;;;0.90;0.90;;;;;;;;;;4969449;28;20240;-85
2022/05/31 06:57:03;;;;;;;6.20;4.13;;;;;;;;;;4998605;28;20250;-90
2022/05/31 06:59:49;;;;;;;1.23;1.23;;;;;;;;;;4977386;28;20298;-88
2022/05/31 07:02:25;;;;;;;4.70;2.57;;;;;;;;;;5004956;28;20218;-86
2022/05/31 07:04:54;;;;;;;1.87;1.77;;;;;;;;;;4974700;28;20227;-88
2022/05/31 07:07:35;;;;;;;1.90;1.60;;;;;;;;;;4981164;28;20263;-86
2022/05/31 07:10:06;;;;;;;2.17;1.77;;;;;;;;;;5009699;28;20270;-84
2022/05/31 07:12:45;;;;;;;2.30;2.10;;;;;;;;;;4994162;28;20211;-86
2022/05/31 07:15:26;;;;;;;1.20;1.20;;;;;;;;;;5004076;28;20199;-84
2022/05/31 07:17:57;;;;;;;1.07;1.03;;;;;;;;;;4977747;28;20203;-88
2022/05/31 07:20:26;;;;;;;2.57;2.03;;;;;;;;;;4976530;28;20212;-84
2022/05/31 07:22:55;;;;;;;0.40;0.40;;;;;;;;;;5001582;28;20228;-87
2022/05/31 07:25:24;;;;;;;5.23;3.40;;;;;;;;;;4979020;28;20204;-87
2022/05/31 07:27:53;;;;;;;5.80;3.33;;;;;;;;;;4973957;28;20264;-87
2022/05/31 07:30:24;;;;;;;2.30;2.10;;;;;;;;;;4979197;28;20207;-86
2022/05/31 07:32:57;;;;;;;5.43;2.97;;;;;;;;;;4973957;28;20222;-88
2022/05/31 07:35:46;;;;;;;2.43;1.60;;;;;;;;;;5000875;28;20232;-86
2022/05/31 07:38:15;;;;;;;2.27;2.10;;;;;;;;;;4991743;28;20270;-86
2022/05/31 07:40:45;;;;;;;4.87;2.60;;;;;;;;;;4974258;28;20228;-87
2022/05/31 07:43:14;;;;;;;3.93;1.83;;;;;;;;;;5004649;28;20232;-88
2022/05/31 07:45:44;;;;;;;0.80;0.80;;;;;;;;;;5004815;28;20212;-85
2022/05/31 07:48:15;;;;;;;1.87;1.30;;;;;;;;;;4985857;28;20226;-85
2022/05/31 07:50:44;;;;;;;5.00;2.50;;;;;;;;;;4965664;28;20247;-84
2022/05/31 07:53:13;;;;;;;2.60;1.37;;;;;;;;;;4981684;28;20216;-83
2022/05/31 07:55:54;;;;;;;4.57;3.07;;;;;;;;;;4966737;28;20204;-85
2022/05/31 07:58:34;;;;;;;0.73;0.73;;;;;;;;;;4969262;28;20203;-85
2022/05/31 08:01:05;;;;;;;1.30;1.20;;;;;;;;;;4965572;28;20232;-84
2022/05/31 08:03:38;;;;;;;1.07;1.07;;;;;;;;;;4996187;28;21216;-84
2022/05/31 08:06:07;;;;;;;1.00;0.90;;;;;;;;;;4991963;28;20257;-85
2022/05/31 08:08:36;;;;;;;4.97;2.47;;;;;;;;;;4985894;28;20298;-84
2022/05/31 08:11:05;;;;;;;1.10;1.00;;;;;;;;;;4974404;28;20211;-88
2022/05/31 08:13:34;;;;;;;3.37;1.93;;;;;;;;;;4988898;28;20260;-83
2022/05/31 08:16:03;;;;;;;7.77;3.77;;;;;;;;;;4985497;28;20213;-84
2022/05/31 08:18:32;;;;;;;3.50;3.13;;;;;;;;;;4970174;28;20240;-84
2022/05/31 08:21:03;;;;;;;8.60;4.23;;;;;;;;;;4971589;28;20237;-85
2022/05/31 08:23:32;;;;;;;0.50;0.50;;;;;;;;;;4960576;28;20217;-86
2022/05/31 08:26:01;;;;;;;4.30;3.00;;;;;;;;;;4969097;28;20205;-86
2022/05/31 08:28:33;;;;;;;1.27;1.27;;;;;;;;;;4975543;28;20212;-86
2022/05/31 08:31:17;;;;;;;0.43;0.43;;;;;;;;;;4976935;28;20208;-88
2022/05/31 08:33:53;;;;;;;1.77;1.30;;;;;;;;;;4974970;28;20195;-89
2022/05/31 08:36:26;;;;;;;0.73;0.73;;;;;;;;;;4977102;28;20340;-84
2022/05/31 08:39:00;;;;;;;5.70;3.40;;;;;;;;;;4992257;28;20235;-88
2022/05/31 08:41:31;;;;;;;3.57;2.07;;;;;;;;;;4974756;28;20279;-85
2022/05/31 08:44:07;;;;;;;0.70;0.70;;;;;;;;;;5010024;28;20228;-88
2022/05/31 08:46:45;;;;;;;1.00;0.93;;;;;;;;;;4975963;28;20204;-85
2022/05/31 08:52:48;;;;;;;1.20;1.10;;;;;;;;;;5116296;27;20212;-87
2022/05/31 08:58:10;;;;;;;2.37;2.23;;;;;;;;;;5065000;27;20193;-84
2022/05/31 09:00:41;;;;;;;1.87;1.77;;;;;;;;;;5111934;27;20208;-83
2022/05/31 09:03:18;;;;;;;4.50;2.57;;;;;;;;;;5099649;28;20207;-85
2022/05/31 09:06:07;;;;;;;0.73;0.73;;;;;;;;;;5100447;28;20205;-87
2022/05/31 09:08:40;;;;;;;7.70;3.90;;;;;;;;;;5072074;28;20228;-86
2022/05/31 09:11:12;;;;;;;1.20;1.10;;;;;;;;;;5094129;28;20208;-85
2022/05/31 09:13:46;;;;;;;5.83;3.40;;;;;;;;;;5107612;27;20315;-86
2022/05/31 09:16:23;;;;;;;5.73;3.20;;;;;;;;;;5100006;28;20209;-91
2022/05/31 09:19:00;;;;;;;2.63;2.43;;;;;;;;;;5112230;27;20197;-85
2022/05/31 09:21:50;;;;;;;2.53;2.40;;;;;;;;;;5094189;28;20211;-86
2022/05/31 09:24:38;;;;;;;0.80;0.80;;;;;;;;;;5110520;27;20203;-87
2022/05/31 09:27:33;;;;;;;1.60;1.17;;;;;;;;;;5101078;28;20209;-85
2022/05/31 09:31:01;;;;;;;0.93;0.87;;;;;;;;;;5079105;27;20259;-85
2022/05/31 09:46:13;;;;;;;0.50;0.50;;;;;;;;;;4810370;29;20220;-85
2022/05/31 09:49:37;;;;;;;;;;;;;;;;;;;;;
2022/05/31 10:02:05;;;;;;;4.67;3.37;;;;;;;;;;4885835;29;20216;-86
2022/05/31 10:04:42;;;;;;;2.17;1.70;;;;;;;;;;4854702;29;20219;-86
2022/05/31 10:07:15;;;;;;;3.27;2.83;;;;;;;;;;4974326;28;20211;-86
2022/05/31 10:09:48;;;;;;;2.17;1.97;;;;;;;;;;4965265;28;20207;-85
2022/05/31 10:12:21;;;;;;;7.30;1.50;;;;;;;;;;4979891;28;20226;-85
2022/05/31 10:14:50;;;;;;;2.43;2.13;;;;;;;;;;4983998;28;20202;-86
2022/05/31 10:17:35;;;;;;;2.33;1.60;;;;;;;;;;5001517;28;20209;-85
2022/05/31 10:20:24;;;;;;;6.60;1.87;;;;;;;;;;5069122;28;20219;-85
2022/05/31 10:22:57;;;;;;;1.63;1.53;;;;;;;;;;5072566;28;20206;-84
2022/05/31 10:25:28;;;;;;;2.27;2.00;;;;;;;;;;5086856;28;20228;-85
2022/05/31 10:27:58;;;;;;;1.97;0.83;;;;;;;;;;5081331;28;20206;-86
2022/05/31 10:30:27;;;;;;;1.90;1.80;;;;;;;;;;5061705;28;20215;-84
2022/05/31 10:33:07;;;;;;;1.67;1.30;;;;;;;;;;5074122;28;20267;-85
2022/05/31 10:35:37;;;;;;;3.23;2.30;;;;;;;;;;5076992;28;20209;-86
2022/05/31 10:38:27;;;;;;;6.17;2.73;;;;;;;;;;5074826;28;20305;-84
2022/05/31 10:41:07;;;;;;;2.37;1.63;;;;;;;;;;5074477;28;20313;-85
2022/05/31 10:43:42;;;;;;;2.20;2.00;;;;;;;;;;5073099;28;20222;-87
2022/05/31 10:46:14;;;;;;;5.27;2.03;;;;;;;;;;5071975;28;20300;-85
2022/05/31 10:48:51;;;;;;;2.47;1.80;;;;;;;;;;5061014;28;20228;-87
2022/05/31 10:51:26;;;;;;;1.63;1.47;;;;;;;;;;5057000;28;20485;-86
2022/05/31 10:54:03;;;;;;;3.37;1.70;;;;;;;;;;5058318;28;20214;-86
2022/05/31 10:56:40;;;;;;;2.17;1.97;;;;;;;;;;5072047;28;20212;-86
2022/05/31 10:59:22;;;;;;;1.60;1.50;;;;;;;;;;5070218;28;20324;-84
2022/05/31 11:02:15;;;;;;;1.43;1.33;;;;;;;;;;5059111;28;20204;-84
2022/05/31 11:04:53;;;;;;;0.77;0.77;;;;;;;;;;5045782;28;20224;-85
2022/05/31 11:07:35;;;;;;;0.50;0.50;;;;;;;;;;5076484;28;20216;-85
2022/05/31 11:13:16;;;;;;;1.40;1.33;;;;;;;;;;5072050;28;20208;-86
2022/05/31 11:15:53;;;;;;;1.13;1.03;;;;;;;;;;5070989;28;20207;-87
2022/05/31 11:18:39;;;;;;;0.70;0.70;;;;;;;;;;5058643;28;20210;-84
2022/05/31 11:21:13;;;;;;;0.80;0.80;;;;;;;;;;5055099;28;20206;-87
2022/05/31 11:24:01;;;;;;;1.97;1.87;;;;;;;;;;5058749;28;20205;-86
2022/05/31 11:26:47;;;;;;;1.33;1.33;;;;;;;;;;5073139;28;20206;-88
2022/05/31 11:29:48;;;;;;;0.80;0.80;;;;;;;;;;5073432;28;20203;-85
2022/05/31 11:32:19;;;;;;;2.33;2.13;;;;;;;;;;5058513;28;20304;-86
2022/05/31 11:34:55;;;;;;;0.40;0.40;;;;;;;;;;5057933;28;20289;-89
2022/05/31 11:37:36;;;;;;;1.47;1.37;;;;;;;;;;5070720;28;20202;-86
2022/05/31 11:40:19;;;;;;;3.10;2.57;;;;;;;;;;5057008;28;20219;-89
2022/05/31 11:43:05;;;;;;;1.70;1.37;;;;;;;;;;5081067;28;20203;-86
2022/05/31 11:45:42;;;;;;;1.13;1.03;;;;;;;;;;5075689;28;20202;-86
2022/05/31 11:48:29;;;;;;;1.80;1.57;;;;;;;;;;5054603;28;20245;-87
2022/05/31 11:51:06;;;;;;;5.40;1.90;;;;;;;;;;5053336;28;20236;-83
2022/05/31 11:53:54;;;;;;;1.40;1.30;;;;;;;;;;5057569;28;20202;-83
2022/05/31 11:56:35;;;;;;;2.60;2.40;;;;;;;;;;5069557;28;20210;-85
2022/05/31 11:59:12;;;;;;;0.73;0.73;;;;;;;;;;5057371;28;20232;-87
2022/05/31 12:01:59;;;;;;;1.43;1.33;;;;;;;;;;5066166;28;20205;-85
2022/05/31 12:04:37;;;;;;;1.87;1.70;;;;;;;;;;5072317;28;20341;-84
2022/05/31 12:07:10;;;;;;;2.90;2.00;;;;;;;;;;5053546;28;20208;-87
2022/05/31 12:09:46;;;;;;;2.00;1.47;;;;;;;;;;5075561;28;20216;-84
2022/05/31 12:12:30;;;;;;;1.60;1.50;;;;;;;;;;5076731;28;20208;-86
2022/05/31 12:15:32;;;;;;;3.30;1.90;;;;;;;;;;5051136;28;20210;-86
2022/05/31 12:18:15;;;;;;;13.37;1.40;;;;;;;;;;5051916;28;20204;-88
2022/05/31 12:20:54;;;;;;;1.47;1.37;;;;;;;;;;5068828;28;20203;-85
2022/05/31 12:23:35;;;;;;;1.03;0.90;;;;;;;;;;5058361;28;20205;-84
2022/05/31 12:26:26;;;;;;;0.63;0.63;;;;;;;;;;5069936;28;20212;-86
2022/05/31 12:29:12;;;;;;;1.50;1.47;;;;;;;;;;5062622;28;20222;-85
2022/05/31 12:31:45;;;;;;;0.60;0.60;;;;;;;;;;5061465;28;20264;-86
2022/05/31 12:34:41;;;;;;;1.17;1.10;;;;;;;;;;5065879;28;20229;-88
2022/05/31 12:37:13;;;;;;;1.17;1.17;;;;;;;;;;5056552;28;20292;-85
2022/05/31 12:39:56;;;;;;;1.10;1.03;;;;;;;;;;5076064;28;20231;-90
2022/05/31 12:42:49;;;;;;;2.67;1.00;;;;;;;;;;5060469;28;20209;-87
2022/05/31 12:45:41;;;;;;;0.67;0.67;;;;;;;;;;5061998;28;20245;-86
2022/05/31 12:48:34;;;;;;;1.50;1.17;;;;;;;;;;5053161;28;20333;-86
2022/05/31 12:54:53;;;;;;;;;;;;;;;;;;;;;
2022/05/31 13:00:32;;;;;;;1.80;1.47;;;;;;;;;;5078205;28;20228;-86
2022/05/31 13:06:25;;;;;;;4.43;2.80;;;;;;;;;;5076076;28;20214;-85
2022/05/31 13:09:13;;;;;;;5.53;4.87;;;;;;;;;;5073959;28;20258;-85
2022/05/31 13:20:49;;;;;;;4.77;3.83;;;;;;;;;;5071416;28;20226;-85
2022/05/31 13:23:27;;;;;;;4.07;3.47;;;;;;;;;;5074822;28;20213;-85
2022/05/31 13:26:02;;;;;;;3.10;2.57;;;;;;;;;;5064787;28;20203;-86
2022/05/31 13:28:41;;;;;;;6.47;2.90;;;;;;;;;;5054723;28;20211;-86
2022/05/31 13:31:12;;;;;;;2.00;1.83;;;;;;;;;;5059462;28;20201;-85
2022/05/31 13:33:45;;;;;;;3.50;2.17;;;;;;;;;;5074857;28;20208;-85
2022/05/31 13:36:24;;;;;;;6.67;3.07;;;;;;;;;;5078232;28;20223;-85
2022/05/31 13:39:06;;;;;;;5.30;3.43;;;;;;;;;;5078292;28;20202;-85
2022/05/31 13:41:52;;;;;;;5.80;4.33;;;;;;;;;;5068014;28;20220;-88
2022/05/31 13:44:37;;;;;;;3.63;3.33;;;;;;;;;;5079028;28;20221;-88
2022/05/31 13:47:08;;;;;;;2.23;2.10;;;;;;;;;;5060525;28;20198;-85
2022/05/31 13:49:40;;;;;;;3.37;2.60;;;;;;;;;;5063198;28;20242;-85
2022/05/31 13:52:31;;;;;;;4.50;2.80;;;;;;;;;;5062254;28;20331;-85
2022/05/31 13:55:08;;;;;;;1.43;1.33;;;;;;;;;;5077513;28;20202;-86
2022/05/31 13:58:00;;;;;;;4.97;3.67;;;;;;;;;;5058500;28;20207;-86
2022/05/31 14:00:45;;;;;;;6.17;3.80;;;;;;;;;;5074381;28;20230;-84
2022/05/31 14:03:23;;;;;;;5.30;4.20;;;;;;;;;;5081441;28;20213;-87
2022/05/31 14:05:56;;;;;;;5.80;4.70;;;;;;;;;;5059647;28;20220;-85
2022/05/31 14:08:27;;;;;;;4.70;3.90;;;;;;;;;;5081063;28;20212;-85
2022/05/31 14:10:59;;;;;;;3.17;2.73;;;;;;;;;;5067954;28;20202;-84
2022/05/31 14:13:47;;;;;;;5.13;3.20;;;;;;;;;;5076827;28;20270;-84
2022/05/31 14:16:35;;;;;;;3.60;2.27;;;;;;;;;;5058274;28;20251;-86
2022/05/31 14:19:05;;;;;;;2.57;2.37;;;;;;;;;;5060634;28;20271;-85
2022/05/31 14:21:45;;;;;;;1.73;1.63;;;;;;;;;;5075179;28;20236;-86
2022/05/31 14:24:24;;;;;;;5.90;4.30;;;;;;;;;;5062293;28;20197;-87
2022/05/31 14:27:03;;;;;;;4.90;3.80;;;;;;;;;;5077570;28;20205;-86
2022/05/31 14:29:35;;;;;;;8.33;7.53;;;;;;;;;;5059348;28;20293;-87
2022/05/31 14:32:19;;;;;;;1.57;1.47;;;;;;;;;;5079675;28;20268;-87
2022/05/31 14:34:50;;;;;;;0.73;0.73;;;;;;;;;;5061285;28;20273;-86
2022/05/31 14:37:38;;;;;;;4.47;2.60;;;;;;;;;;5073630;28;20206;-86
2022/05/31 14:40:16;;;;;;;3.50;3.20;;;;;;;;;;5072129;28;20230;-85
2022/05/31 14:42:58;;;;;;;6.63;5.17;;;;;;;;;;5079139;28;20348;-85
2022/05/31 14:45:31;;;;;;;5.20;3.17;;;;;;;;;;5074096;28;20202;-85
2022/05/31 14:48:24;;;;;;;2.90;2.60;;;;;;;;;;5058419;28;20265;-86
2022/05/31 14:50:58;;;;;;;3.33;3.13;;;;;;;;;;5070771;28;20213;-88
2022/05/31 14:53:35;;;;;;;5.40;2.00;;;;;;;;;;5077621;28;20232;-85
2022/05/31 14:56:19;;;;;;;1.60;1.50;;;;;;;;;;5062153;28;20208;-84
2022/05/31 14:59:02;;;;;;;2.57;2.20;;;;;;;;;;5075744;28;20204;-85
2022/05/31 15:01:40;;;;;;;0.97;0.90;;;;;;;;;;5056654;28;20238;-85
2022/05/31 15:04:23;;;;;;;7.07;1.07;;;;;;;;;;5056223;28;20211;-85
2022/05/31 15:07:11;;;;;;;2.13;1.93;;;;;;;;;;5073678;28;20208;-85
2022/05/31 15:10:22;;;;;;;0.93;0.93;;;;;;;;;;5074666;28;20302;-86
2022/05/31 15:19:25;;;;;;;1.93;1.73;;;;;;;;;;5073811;28;20251;-86
2022/05/31 15:21:56;;;;;;;2.43;1.50;;;;;;;;;;5072042;28;20276;-84
2022/05/31 15:24:31;;;;;;;1.10;1.10;;;;;;;;;;5059551;28;20207;-84
2022/05/31 15:27:03;;;;;;;7.43;3.03;;;;;;;;;;5050758;28;20638;-85
2022/05/31 15:30:02;;;;;;;0.63;0.63;;;;;;;;;;5054752;28;20281;-85
2022/05/31 15:32:36;;;;;;;1.40;1.30;;;;;;;;;;5076774;28;20202;-85
2022/05/31 15:35:09;;;;;;;3.20;2.53;;;;;;;;;;5063472;28;20199;-84
2022/05/31 15:37:50;;;;;;;2.50;2.20;;;;;;;;;;5061403;28;20216;-87
2022/05/31 15:40:20;;;;;;;3.37;2.90;;;;;;;;;;5065181;28;20215;-87
2022/05/31 15:42:48;;;;;;;4.40;2.40;;;;;;;;;;5071278;28;20202;-86
2022/05/31 15:45:18;;;;;;;2.17;1.47;;;;;;;;;;5078319;28;20207;-87
2022/05/31 15:47:49;;;;;;;2.77;2.53;;;;;;;;;;5065130;28;20289;-85
2022/05/31 15:50:17;;;;;;;1.57;1.47;;;;;;;;;;5065878;28;20201;-86
2022/05/31 15:52:47;;;;;;;0.33;0.33;;;;;;;;;;5080784;28;20199;-87
2022/05/31 15:55:17;;;;;;;0.80;0.80;;;;;;;;;;5078515;28;20213;-87
2022/05/31 15:57:47;;;;;;;0.97;0.97;;;;;;;;;;5077229;28;20212;-86
2022/05/31 16:00:19;;;;;;;1.10;1.10;;;;;;;;;;5062406;28;20195;-86
2022/05/31 16:02:48;;;;;;;0.30;0.30;;;;;;;;;;5060437;28;20232;-87
2022/05/31 16:05:17;;;;;;;1.10;1.00;;;;;;;;;;5071817;28;20202;-86
2022/05/31 16:07:47;;;;;;;0.57;0.57;;;;;;;;;;5075912;28;20203;-86
2022/05/31 16:10:17;;;;;;;0.67;0.67;;;;;;;;;;5074119;28;20295;-86
2022/05/31 16:12:46;;;;;;;0.63;0.63;;;;;;;;;;5059114;28;20200;-86
2022/05/31 16:15:15;;;;;;;1.40;1.30;;;;;;;;;;5057718;28;20195;-85
2022/05/31 16:17:46;;;;;;;0.70;0.70;;;;;;;;;;5074803;28;20255;-86
2022/05/31 16:20:15;;;;;;;0.60;0.60;;;;;;;;;;5060107;28;20518;-86
2022/05/31 16:22:46;;;;;;;0.50;0.50;;;;;;;;;;5078057;28;20226;-85
2022/05/31 16:25:16;;;;;;;1.77;1.40;;;;;;;;;;5061786;28;20201;-86
2022/05/31 16:27:45;;;;;;;0.73;0.60;;;;;;;;;;5057006;28;20217;-88
2022/05/31 16:30:14;;;;;;;0.77;0.77;;;;;;;;;;5061292;28;20198;-90
2022/05/31 16:32:43;;;;;;;0.67;0.67;;;;;;;;;;5077020;28;20200;-87
2022/05/31 16:35:14;;;;;;;0.37;0.37;;;;;;;;;;5068429;28;20204;-86